Time;durP1;ratioP1;P1;durP2;ratioP2;P2;SDS_P1;SDS_P2;PMS_P1;PMS_P2;Temp;Humidity;BMP_temperature;BMP_pressure;BME280_temperature;BME280_humidity;BME280_pressure;Samples;Min_cycle;Max_cycle;Signal;HPM_P1;HPM_P2
2023/09/24 00:01:35;;;;;;;12.13;3.72;;;;;;;;;;5114899;27;20446;-76
2023/09/24 00:04:00;;;;;;;10.27;3.50;;;;;;;;;;5110762;27;20120;-76
2023/09/24 00:06:26;;;;;;;5.18;2.92;;;;;;;;;;5105849;27;20147;-74
2023/09/24 00:08:51;;;;;;;13.30;3.38;;;;;;;;;;5106125;27;20030;-76
2023/09/24 00:11:16;;;;;;;8.45;3.53;;;;;;;;;;5111162;27;20015;-74
2023/09/24 00:13:42;;;;;;;6.40;3.25;;;;;;;;;;5116252;27;20458;-72
2023/09/24 00:16:09;;;;;;;9.23;3.13;;;;;;;;;;5114630;27;20036;-73
2023/09/24 00:18:34;;;;;;;8.40;3.60;;;;;;;;;;5112233;27;20393;-74
2023/09/24 00:21:00;;;;;;;8.63;3.22;;;;;;;;;;5116511;27;20032;-73
2023/09/24 00:23:25;;;;;;;10.27;3.45;;;;;;;;;;5114565;27;20042;-74
2023/09/24 00:25:51;;;;;;;9.02;4.03;;;;;;;;;;5105120;27;20023;-72
2023/09/24 00:28:16;;;;;;;8.02;3.60;;;;;;;;;;5114941;27;20050;-75
2023/09/24 00:30:43;;;;;;;14.02;3.95;;;;;;;;;;5114177;28;20626;-76
2023/09/24 00:33:09;;;;;;;19.60;5.00;;;;;;;;;;5114751;27;20057;-75
2023/09/24 00:35:34;;;;;;;16.42;5.28;;;;;;;;;;5113375;27;20023;-75
2023/09/24 00:37:59;;;;;;;11.00;4.35;;;;;;;;;;5116166;27;20039;-74
2023/09/24 00:40:25;;;;;;;13.85;3.83;;;;;;;;;;5114984;27;20019;-76
2023/09/24 00:42:50;;;;;;;7.10;3.75;;;;;;;;;;5111892;27;20015;-77
2023/09/24 00:45:15;;;;;;;6.95;3.35;;;;;;;;;;5119800;27;20031;-76
2023/09/24 00:47:42;;;;;;;6.70;3.20;;;;;;;;;;5117723;27;20027;-73
2023/09/24 00:50:08;;;;;;;9.18;3.72;;;;;;;;;;5119629;27;20034;-75
2023/09/24 00:52:34;;;;;;;9.48;4.03;;;;;;;;;;5117724;27;20453;-74
2023/09/24 00:54:59;;;;;;;11.60;3.65;;;;;;;;;;5118485;27;20032;-75
2023/09/24 00:57:26;;;;;;;7.75;3.50;;;;;;;;;;5114683;27;20055;-73
2023/09/24 00:59:51;;;;;;;8.80;3.60;;;;;;;;;;5117188;27;20031;-76
2023/09/24 01:02:17;;;;;;;6.68;3.67;;;;;;;;;;5118391;27;20102;-73
2023/09/24 01:04:44;;;;;;;10.25;3.30;;;;;;;;;;5116264;27;20035;-73
2023/09/24 01:07:09;;;;;;;9.95;3.25;;;;;;;;;;5116498;27;20019;-74
2023/09/24 01:09:34;;;;;;;5.78;3.60;;;;;;;;;;5118601;27;20484;-73
2023/09/24 01:12:03;;;;;;;6.55;2.95;;;;;;;;;;5114963;27;20357;-75
2023/09/24 01:14:29;;;;;;;9.70;3.28;;;;;;;;;;5117805;27;20023;-74
2023/09/24 01:16:55;;;;;;;8.95;3.33;;;;;;;;;;5108814;27;20027;-73
2023/09/24 01:19:22;;;;;;;5.97;2.78;;;;;;;;;;5116269;27;20023;-76
2023/09/24 01:21:47;;;;;;;7.00;2.90;;;;;;;;;;5117227;27;20603;-73
2023/09/24 01:24:12;;;;;;;7.70;3.08;;;;;;;;;;5117973;27;20595;-74
2023/09/24 01:26:38;;;;;;;5.03;2.80;;;;;;;;;;5118896;27;20027;-75
2023/09/24 01:29:07;;;;;;;9.73;3.30;;;;;;;;;;5117040;27;20023;-75
2023/09/24 01:31:32;;;;;;;7.53;3.15;;;;;;;;;;5116544;27;20015;-75
2023/09/24 01:33:59;;;;;;;8.05;2.85;;;;;;;;;;5112364;27;20073;-73
2023/09/24 01:36:24;;;;;;;7.00;3.22;;;;;;;;;;5121267;27;20015;-73
2023/09/24 01:38:50;;;;;;;6.47;3.15;;;;;;;;;;5117815;27;20364;-76
2023/09/24 01:41:15;;;;;;;8.27;3.30;;;;;;;;;;5116069;27;20031;-75
2023/09/24 01:43:43;;;;;;;7.43;3.00;;;;;;;;;;5116306;27;20039;-75
2023/09/24 01:46:10;;;;;;;7.68;3.13;;;;;;;;;;5115586;27;20096;-75
2023/09/24 01:48:35;;;;;;;8.18;3.00;;;;;;;;;;5113747;27;20110;-74
2023/09/24 01:51:08;;;;;;;10.55;3.30;;;;;;;;;;5116856;27;20117;-73
2023/09/24 01:53:35;;;;;;;9.70;3.30;;;;;;;;;;5148468;27;20032;-73
2023/09/24 01:56:02;;;;;;;6.43;3.17;;;;;;;;;;5116385;27;20118;-73
2023/09/24 01:58:27;;;;;;;9.15;3.35;;;;;;;;;;5118100;27;20038;-73
2023/09/24 02:00:52;;;;;;;12.90;3.42;;;;;;;;;;5114402;27;20027;-73
2023/09/24 02:03:18;;;;;;;8.15;3.33;;;;;;;;;;5104007;27;20035;-74
2023/09/24 02:05:44;;;;;;;9.02;3.40;;;;;;;;;;5113349;27;20146;-75
2023/09/24 02:08:10;;;;;;;9.15;3.60;;;;;;;;;;5118793;27;20019;-73
2023/09/24 02:10:39;;;;;;;14.13;3.63;;;;;;;;;;5115908;27;20453;-73
2023/09/24 02:13:06;;;;;;;7.25;3.65;;;;;;;;;;5116888;27;20624;-75
2023/09/24 02:15:32;;;;;;;7.07;3.80;;;;;;;;;;5114895;27;20031;-73
2023/09/24 02:17:57;;;;;;;8.77;3.92;;;;;;;;;;5117513;27;20045;-73
2023/09/24 02:20:27;;;;;;;8.48;3.83;;;;;;;;;;5118680;27;20019;-73
2023/09/24 02:22:56;;;;;;;8.98;4.68;;;;;;;;;;5106902;27;20353;-75
2023/09/24 02:25:23;;;;;;;9.18;4.47;;;;;;;;;;5106476;27;20438;-75
2023/09/24 02:27:50;;;;;;;8.40;4.85;;;;;;;;;;5117602;27;20034;-73
2023/09/24 02:30:16;;;;;;;22.83;7.32;;;;;;;;;;5116894;27;20104;-75
2023/09/24 02:32:42;;;;;;;12.48;6.40;;;;;;;;;;5114487;27;20086;-74
2023/09/24 02:35:13;;;;;;;7.45;5.60;;;;;;;;;;5117557;27;20019;-73
2023/09/24 02:37:40;;;;;;;9.32;5.18;;;;;;;;;;5114940;27;20020;-73
2023/09/24 02:40:14;;;;;;;12.15;5.50;;;;;;;;;;5117495;27;20031;-75
2023/09/24 02:42:40;;;;;;;12.18;5.18;;;;;;;;;;5105959;27;20039;-74
2023/09/24 02:45:08;;;;;;;7.43;6.00;;;;;;;;;;5117924;27;20031;-74
2023/09/24 02:47:33;;;;;;;9.02;5.75;;;;;;;;;;5113892;27;20438;-77
2023/09/24 02:49:59;;;;;;;14.10;8.30;;;;;;;;;;5116108;27;20030;-74
2023/09/24 02:52:24;;;;;;;6.68;5.43;;;;;;;;;;5113348;27;20027;-74
2023/09/24 02:54:50;;;;;;;6.60;4.53;;;;;;;;;;5117221;27;20450;-73
2023/09/24 02:57:15;;;;;;;10.80;5.60;;;;;;;;;;5111396;27;20121;-73
2023/09/24 02:59:41;;;;;;;9.85;5.50;;;;;;;;;;5106739;27;20333;-73
2023/09/24 03:02:06;;;;;;;8.35;4.40;;;;;;;;;;5117193;27;20446;-73
2023/09/24 03:04:32;;;;;;;8.35;5.00;;;;;;;;;;5114574;27;20038;-73
2023/09/24 03:06:57;;;;;;;8.57;5.60;;;;;;;;;;5115587;27;20792;-75
2023/09/24 03:09:23;;;;;;;8.65;4.80;;;;;;;;;;5116091;27;20358;-76
2023/09/24 03:11:49;;;;;;;10.23;5.78;;;;;;;;;;5108253;27;20055;-75
2023/09/24 03:14:14;;;;;;;9.38;5.10;;;;;;;;;;5111440;27;20088;-74
2023/09/24 03:16:39;;;;;;;14.60;5.50;;;;;;;;;;5115239;27;20027;-74
2023/09/24 03:19:05;;;;;;;7.43;5.03;;;;;;;;;;5114024;27;20031;-74
2023/09/24 03:21:30;;;;;;;10.10;5.00;;;;;;;;;;5115608;27;20031;-74
2023/09/24 03:23:55;;;;;;;6.88;4.65;;;;;;;;;;5112730;27;20038;-74
2023/09/24 03:26:21;;;;;;;9.43;4.80;;;;;;;;;;5105847;27;20024;-78
2023/09/24 03:28:48;;;;;;;13.73;4.68;;;;;;;;;;5110500;27;20370;-76
2023/09/24 03:31:14;;;;;;;10.77;5.07;;;;;;;;;;5113012;27;20027;-74
2023/09/24 03:33:39;;;;;;;11.93;5.18;;;;;;;;;;5117845;27;20363;-73
2023/09/24 03:36:07;;;;;;;6.65;4.75;;;;;;;;;;5111828;27;20026;-74
2023/09/24 03:38:33;;;;;;;7.85;4.47;;;;;;;;;;5116187;27;20078;-73
2023/09/24 03:40:58;;;;;;;7.18;4.60;;;;;;;;;;5114785;27;20446;-74
2023/09/24 03:43:24;;;;;;;9.48;3.85;;;;;;;;;;5117371;27;20027;-74
2023/09/24 03:45:49;;;;;;;6.47;3.90;;;;;;;;;;5110028;27;21438;-74
2023/09/24 03:48:14;;;;;;;12.85;4.75;;;;;;;;;;5101940;27;20823;-76
2023/09/24 03:50:40;;;;;;;5.70;3.85;;;;;;;;;;5105311;27;20497;-75
2023/09/24 03:53:05;;;;;;;8.23;4.05;;;;;;;;;;5102672;27;20035;-77
2023/09/24 03:55:30;;;;;;;10.05;4.57;;;;;;;;;;5114536;27;20470;-73
2023/09/24 03:57:56;;;;;;;5.70;4.00;;;;;;;;;;5110898;27;20555;-74
2023/09/24 04:00:21;;;;;;;10.27;4.13;;;;;;;;;;5111120;27;20106;-77
2023/09/24 04:02:47;;;;;;;6.43;4.15;;;;;;;;;;5115461;27;20414;-74
2023/09/24 04:05:17;;;;;;;6.30;4.10;;;;;;;;;;5108078;27;20030;-74
2023/09/24 04:07:52;;;;;;;6.93;4.18;;;;;;;;;;5108266;27;20441;-74
2023/09/24 04:10:21;;;;;;;9.00;4.43;;;;;;;;;;5112450;27;20050;-76
2023/09/24 04:12:49;;;;;;;5.25;4.22;;;;;;;;;;5114059;27;20027;-77
2023/09/24 04:15:18;;;;;;;6.85;4.43;;;;;;;;;;5108482;27;20040;-75
2023/09/24 04:17:44;;;;;;;4.53;3.85;;;;;;;;;;5111635;27;20016;-74
2023/09/24 04:20:15;;;;;;;7.32;4.13;;;;;;;;;;5115107;27;20045;-76
2023/09/24 04:22:44;;;;;;;13.23;4.63;;;;;;;;;;5112107;27;20027;-80
2023/09/24 04:25:09;;;;;;;6.90;4.28;;;;;;;;;;5115091;27;20095;-75
2023/09/24 04:27:35;;;;;;;6.53;4.18;;;;;;;;;;5112880;28;20069;-74
2023/09/24 04:30:02;;;;;;;5.80;4.15;;;;;;;;;;5111697;28;20027;-76
2023/09/24 04:32:27;;;;;;;11.02;4.50;;;;;;;;;;5103914;28;20576;-74
2023/09/24 04:34:55;;;;;;;9.68;4.82;;;;;;;;;;5112163;27;20074;-74
2023/09/24 04:37:20;;;;;;;5.80;4.90;;;;;;;;;;5114183;27;20063;-76
2023/09/24 04:39:46;;;;;;;9.25;5.40;;;;;;;;;;5108426;28;20494;-75
2023/09/24 04:42:11;;;;;;;5.25;4.75;;;;;;;;;;5105058;28;20030;-74
2023/09/24 04:44:38;;;;;;;5.60;5.05;;;;;;;;;;5111913;27;20122;-74
2023/09/24 04:47:04;;;;;;;6.20;5.25;;;;;;;;;;5106942;28;20029;-74
2023/09/24 04:49:30;;;;;;;6.68;5.38;;;;;;;;;;5103124;27;20115;-75
2023/09/24 04:51:55;;;;;;;12.95;6.25;;;;;;;;;;5102177;28;20117;-76
2023/09/24 04:54:22;;;;;;;12.98;7.30;;;;;;;;;;5101310;28;20035;-77
2023/09/24 04:56:47;;;;;;;8.68;6.15;;;;;;;;;;5103159;28;20030;-75
2023/09/24 04:59:12;;;;;;;6.70;5.63;;;;;;;;;;5114422;28;20036;-74
2023/09/24 05:01:38;;;;;;;7.20;5.45;;;;;;;;;;5107792;27;20106;-78
2023/09/24 05:04:03;;;;;;;6.07;5.00;;;;;;;;;;5144249;27;20358;-79
2023/09/24 05:06:28;;;;;;;5.30;4.80;;;;;;;;;;5112616;28;20119;-79
2023/09/24 05:08:54;;;;;;;7.38;4.72;;;;;;;;;;5110360;28;20032;-78
2023/09/24 05:11:19;;;;;;;7.65;5.05;;;;;;;;;;5114186;28;20793;-79
2023/09/24 05:13:45;;;;;;;9.07;4.88;;;;;;;;;;5114143;27;20397;-79
2023/09/24 05:16:11;;;;;;;7.40;5.00;;;;;;;;;;5112786;27;20497;-78
2023/09/24 05:18:36;;;;;;;7.30;4.95;;;;;;;;;;5101135;27;20028;-80
2023/09/24 05:21:06;;;;;;;9.90;5.57;;;;;;;;;;5105317;27;20023;-80
2023/09/24 05:23:31;;;;;;;9.52;5.97;;;;;;;;;;5111732;28;20034;-82
2023/09/24 05:25:57;;;;;;;11.20;5.65;;;;;;;;;;5114796;27;20110;-78
2023/09/24 05:28:22;;;;;;;7.10;5.22;;;;;;;;;;5118464;27;20045;-77
2023/09/24 05:30:51;;;;;;;9.70;6.15;;;;;;;;;;5114972;27;20084;-80
2023/09/24 05:33:17;;;;;;;8.35;5.38;;;;;;;;;;5108097;27;20051;-77
2023/09/24 05:35:42;;;;;;;12.95;5.82;;;;;;;;;;5116122;27;20118;-78
2023/09/24 05:38:09;;;;;;;5.80;4.78;;;;;;;;;;5106345;27;20046;-77
2023/09/24 05:40:39;;;;;;;5.38;4.82;;;;;;;;;;5104353;27;20022;-75
2023/09/24 05:43:04;;;;;;;6.30;5.80;;;;;;;;;;5105803;27;20428;-81
2023/09/24 05:45:29;;;;;;;6.55;5.40;;;;;;;;;;5107765;27;20224;-80
2023/09/24 05:47:55;;;;;;;8.25;5.50;;;;;;;;;;5110631;27;20106;-78
2023/09/24 05:50:20;;;;;;;10.70;4.97;;;;;;;;;;5117254;27;20023;-78
2023/09/24 05:52:45;;;;;;;7.10;5.32;;;;;;;;;;5109064;27;20118;-77
2023/09/24 05:55:11;;;;;;;10.90;5.10;;;;;;;;;;5135839;27;20023;-78
2023/09/24 05:57:36;;;;;;;6.97;5.38;;;;;;;;;;5110665;27;20038;-76
2023/09/24 06:00:04;;;;;;;8.07;6.22;;;;;;;;;;5119229;27;20032;-78
2023/09/24 06:02:30;;;;;;;7.13;5.63;;;;;;;;;;5103610;27;20490;-77
2023/09/24 06:04:55;;;;;;;9.32;5.60;;;;;;;;;;5116004;27;20035;-77
2023/09/24 06:07:21;;;;;;;7.00;5.10;;;;;;;;;;5117758;27;20043;-77
2023/09/24 06:09:46;;;;;;;5.65;4.90;;;;;;;;;;5114134;27;20028;-79
2023/09/24 06:12:12;;;;;;;7.50;4.75;;;;;;;;;;5118870;27;20062;-78
2023/09/24 06:14:37;;;;;;;5.07;4.57;;;;;;;;;;5113961;27;20035;-77
2023/09/24 06:17:03;;;;;;;6.47;4.45;;;;;;;;;;5118439;27;20061;-79
2023/09/24 06:19:29;;;;;;;6.28;4.50;;;;;;;;;;5112155;27;20114;-78
2023/09/24 06:21:54;;;;;;;8.07;5.20;;;;;;;;;;5109203;27;20416;-79
2023/09/24 06:24:20;;;;;;;8.50;5.07;;;;;;;;;;5113114;27;20027;-76
2023/09/24 06:26:46;;;;;;;6.65;4.60;;;;;;;;;;5113809;27;20031;-78
2023/09/24 06:29:11;;;;;;;8.05;5.60;;;;;;;;;;5115351;27;20076;-78
2023/09/24 06:31:37;;;;;;;8.90;5.15;;;;;;;;;;5099996;27;20027;-76
2023/09/24 06:34:02;;;;;;;6.90;5.55;;;;;;;;;;5098520;27;20054;-75
2023/09/24 06:36:28;;;;;;;7.97;5.60;;;;;;;;;;5102044;27;20036;-76
2023/09/24 06:38:54;;;;;;;8.15;5.55;;;;;;;;;;5094984;27;20020;-78
2023/09/24 06:41:19;;;;;;;8.35;5.63;;;;;;;;;;5103826;27;20022;-78
2023/09/24 06:43:44;;;;;;;8.05;5.85;;;;;;;;;;5105451;27;20039;-78
2023/09/24 06:46:10;;;;;;;10.30;6.50;;;;;;;;;;5102866;27;20047;-77
2023/09/24 06:48:35;;;;;;;7.38;4.93;;;;;;;;;;5112122;27;20111;-76
2023/09/24 06:51:08;;;;;;;8.23;5.20;;;;;;;;;;5112698;27;20350;-75
2023/09/24 06:53:33;;;;;;;9.93;5.20;;;;;;;;;;5116161;27;20442;-75
2023/09/24 06:55:59;;;;;;;13.55;5.93;;;;;;;;;;5112114;27;20064;-74
2023/09/24 06:58:24;;;;;;;8.77;5.55;;;;;;;;;;5113845;27;20468;-74
2023/09/24 07:00:49;;;;;;;8.35;5.03;;;;;;;;;;5117686;27;20075;-74
2023/09/24 07:03:15;;;;;;;10.23;4.70;;;;;;;;;;5117239;27;20047;-75
2023/09/24 07:05:40;;;;;;;7.93;4.82;;;;;;;;;;5114433;27;20023;-76
2023/09/24 07:08:05;;;;;;;5.45;4.25;;;;;;;;;;5110617;27;20097;-75
2023/09/24 07:10:32;;;;;;;7.82;4.40;;;;;;;;;;5116444;27;20038;-75
2023/09/24 07:12:57;;;;;;;7.20;4.38;;;;;;;;;;5116090;27;20022;-74
2023/09/24 07:15:22;;;;;;;9.40;5.35;;;;;;;;;;5114301;27;20488;-76
2023/09/24 07:17:48;;;;;;;5.75;4.80;;;;;;;;;;5106246;27;20365;-77
2023/09/24 07:20:14;;;;;;;5.18;4.20;;;;;;;;;;5117195;27;20030;-77
2023/09/24 07:22:40;;;;;;;7.68;4.07;;;;;;;;;;5115414;27;20027;-75
2023/09/24 07:25:06;;;;;;;6.80;4.80;;;;;;;;;;5116366;27;20453;-74
2023/09/24 07:27:31;;;;;;;8.90;5.38;;;;;;;;;;5116178;27;20458;-75
2023/09/24 07:29:56;;;;;;;9.80;4.50;;;;;;;;;;5117927;27;20037;-74
2023/09/24 07:32:21;;;;;;;7.30;4.72;;;;;;;;;;5115525;27;20019;-76
2023/09/24 07:34:47;;;;;;;8.30;5.18;;;;;;;;;;5112079;27;20105;-75
2023/09/24 07:37:14;;;;;;;9.52;5.20;;;;;;;;;;5103264;27;20127;-75
2023/09/24 07:39:39;;;;;;;5.45;4.15;;;;;;;;;;5104804;27;20027;-75
2023/09/24 07:42:06;;;;;;;11.63;4.95;;;;;;;;;;5109319;27;20023;-75
2023/09/24 07:44:32;;;;;;;9.13;5.15;;;;;;;;;;5102224;27;20513;-75
2023/09/24 07:46:57;;;;;;;9.15;4.15;;;;;;;;;;5110802;27;20035;-74
2023/09/24 07:49:23;;;;;;;6.28;4.63;;;;;;;;;;5114308;27;20054;-74
2023/09/24 07:51:48;;;;;;;6.15;4.30;;;;;;;;;;5108190;27;20065;-74
2023/09/24 07:54:14;;;;;;;8.15;5.07;;;;;;;;;;5134974;27;20038;-74
2023/09/24 07:56:41;;;;;;;11.77;5.32;;;;;;;;;;5095696;27;20055;-77
2023/09/24 07:59:07;;;;;;;5.38;4.78;;;;;;;;;;5094862;27;20120;-76
2023/09/24 08:01:33;;;;;;;7.15;4.38;;;;;;;;;;5091994;27;20865;-73
2023/09/24 08:03:59;;;;;;;6.90;4.47;;;;;;;;;;5102540;27;20069;-73
2023/09/24 08:06:28;;;;;;;8.65;4.30;;;;;;;;;;5111466;27;20039;-74
2023/09/24 08:08:53;;;;;;;7.37;4.27;;;;;;;;;;5116461;27;20030;-75
2023/09/24 08:11:19;;;;;;;5.65;3.88;;;;;;;;;;5116268;27;20636;-77
2023/09/24 08:13:45;;;;;;;6.82;4.25;;;;;;;;;;5111337;27;20053;-75
2023/09/24 08:16:10;;;;;;;6.25;3.90;;;;;;;;;;5112078;27;20031;-74
2023/09/24 08:18:36;;;;;;;8.63;3.45;;;;;;;;;;5104415;27;20041;-74
2023/09/24 08:21:01;;;;;;;8.23;3.60;;;;;;;;;;5105292;27;20560;-77
2023/09/24 08:23:26;;;;;;;5.13;3.40;;;;;;;;;;5105388;27;20449;-73
2023/09/24 08:25:52;;;;;;;5.93;2.67;;;;;;;;;;5111537;27;20081;-73
2023/09/24 08:28:17;;;;;;;3.60;2.53;;;;;;;;;;5107806;27;20031;-73
2023/09/24 08:30:43;;;;;;;3.25;2.10;;;;;;;;;;5106104;27;20023;-74
2023/09/24 08:33:09;;;;;;;2.33;1.85;;;;;;;;;;5113125;28;20039;-74
2023/09/24 08:35:35;;;;;;;4.00;1.90;;;;;;;;;;5112636;27;20051;-76
2023/09/24 08:38:00;;;;;;;4.45;2.22;;;;;;;;;;5108565;27;20442;-74
2023/09/24 08:40:28;;;;;;;2.65;2.25;;;;;;;;;;5096868;28;20026;-74
2023/09/24 08:42:54;;;;;;;4.05;2.50;;;;;;;;;;5103372;28;20031;-76
2023/09/24 08:45:20;;;;;;;4.68;3.03;;;;;;;;;;5112230;27;20023;-76
2023/09/24 08:47:46;;;;;;;4.43;2.70;;;;;;;;;;5104200;28;20030;-78
2023/09/24 08:50:12;;;;;;;5.47;2.90;;;;;;;;;;5108069;27;20035;-77
2023/09/24 08:52:39;;;;;;;5.65;2.92;;;;;;;;;;5097079;27;20331;-76
2023/09/24 08:55:05;;;;;;;5.90;2.83;;;;;;;;;;5096147;27;20051;-78
2023/09/24 08:57:32;;;;;;;8.88;5.00;;;;;;;;;;5094206;28;20032;-77
2023/09/24 08:59:58;;;;;;;10.75;7.03;;;;;;;;;;5103788;27;20101;-77
2023/09/24 09:02:23;;;;;;;9.20;4.53;;;;;;;;;;5115459;27;20044;-77
2023/09/24 09:04:49;;;;;;;5.65;4.57;;;;;;;;;;5116476;27;20445;-76
2023/09/24 09:07:16;;;;;;;6.63;3.67;;;;;;;;;;5117093;27;20023;-79
2023/09/24 09:09:41;;;;;;;4.07;2.67;;;;;;;;;;5117456;27;20023;-78
2023/09/24 09:12:17;;;;;;;5.25;2.50;;;;;;;;;;5117133;27;20042;-77
2023/09/24 09:14:43;;;;;;;13.27;4.50;;;;;;;;;;5118524;27;20422;-78
2023/09/24 09:17:08;;;;;;;5.38;2.58;;;;;;;;;;5115963;27;20044;-76
2023/09/24 09:19:52;;;;;;;3.35;2.70;;;;;;;;;;5117112;27;20053;-77
2023/09/24 09:22:18;;;;;;;2.40;2.20;;;;;;;;;;5118508;27;20031;-75
2023/09/24 09:24:45;;;;;;;6.70;2.60;;;;;;;;;;5115287;27;20028;-77
2023/09/24 09:27:10;;;;;;;4.60;2.50;;;;;;;;;;5118160;27;20479;-76
2023/09/24 09:29:36;;;;;;;4.35;2.78;;;;;;;;;;5117663;27;20027;-76
2023/09/24 09:32:02;;;;;;;3.35;2.15;;;;;;;;;;5116245;27;20505;-77
2023/09/24 09:34:29;;;;;;;3.47;2.45;;;;;;;;;;5119594;27;20055;-76
2023/09/24 09:37:13;;;;;;;2.90;2.63;;;;;;;;;;5117712;27;20031;-78
2023/09/24 09:39:38;;;;;;;5.90;3.17;;;;;;;;;;5108977;27;20502;-77
2023/09/24 09:42:04;;;;;;;6.22;3.08;;;;;;;;;;5113156;27;20129;-76
2023/09/24 09:44:30;;;;;;;4.80;2.60;;;;;;;;;;5115632;27;20057;-77
2023/09/24 09:47:00;;;;;;;4.22;2.42;;;;;;;;;;5117475;27;20379;-76
2023/09/24 09:49:25;;;;;;;;;;;;;;;;;;5119072;27;20031;-76
2023/09/24 09:51:52;;;;;;;6.27;2.50;;;;;;;;;;5117818;27;19914;-76
2023/09/24 09:54:17;;;;;;;5.43;2.95;;;;;;;;;;5115088;27;20023;-77
2023/09/24 09:56:43;;;;;;;3.60;2.67;;;;;;;;;;5118472;27;20027;-80
2023/09/24 09:59:09;;;;;;;5.57;2.53;;;;;;;;;;5116955;27;20370;-76
2023/09/24 10:01:35;;;;;;;5.78;3.00;;;;;;;;;;5117129;27;20019;-77
2023/09/24 10:04:02;;;;;;;7.72;2.80;;;;;;;;;;5115432;27;20042;-78
2023/09/24 10:06:28;;;;;;;3.75;2.97;;;;;;;;;;5117835;27;20024;-78
2023/09/24 10:08:53;;;;;;;6.53;3.17;;;;;;;;;;5118187;27;20031;-77
2023/09/24 10:11:31;;;;;;;5.97;2.88;;;;;;;;;;5117030;27;20034;-76
2023/09/24 10:13:57;;;;;;;5.80;2.75;;;;;;;;;;5116873;27;20346;-75
2023/09/24 10:16:25;;;;;;;4.95;3.50;;;;;;;;;;5113227;27;20419;-78
2023/09/24 10:18:58;;;;;;;7.07;3.07;;;;;;;;;;5110783;27;20083;-78
2023/09/24 10:21:31;;;;;;;4.47;3.47;;;;;;;;;;5117711;27;20019;-78
2023/09/24 10:24:02;;;;;;;5.63;3.50;;;;;;;;;;5118424;27;20029;-76
2023/09/24 10:26:50;;;;;;;4.88;3.40;;;;;;;;;;5115152;27;20434;-76
2023/09/24 10:29:19;;;;;;;4.60;3.00;;;;;;;;;;5114246;27;20011;-76
2023/09/24 10:32:03;;;;;;;3.88;3.28;;;;;;;;;;5117740;27;20486;-76
2023/09/24 10:34:49;;;;;;;3.33;2.78;;;;;;;;;;5113577;27;20050;-75
2023/09/24 10:37:15;;;;;;;4.85;3.17;;;;;;;;;;5113511;27;20027;-78
2023/09/24 10:40:09;;;;;;;4.68;2.92;;;;;;;;;;5115066;27;20047;-76
2023/09/24 10:42:38;;;;;;;6.70;3.47;;;;;;;;;;5114869;27;20347;-77
2023/09/24 10:45:06;;;;;;;7.68;3.03;;;;;;;;;;5116243;27;20034;-77
2023/09/24 10:47:34;;;;;;;7.22;3.13;;;;;;;;;;5114718;27;20651;-77
2023/09/24 10:50:04;;;;;;;4.40;2.80;;;;;;;;;;5118375;27;20062;-75
2023/09/24 10:52:46;;;;;;;8.65;3.50;;;;;;;;;;5113044;27;20066;-78
2023/09/24 10:55:11;;;;;;;5.93;2.78;;;;;;;;;;5115154;27;20058;-78
2023/09/24 10:57:37;;;;;;;8.93;3.47;;;;;;;;;;5113456;27;20074;-75
2023/09/24 11:00:02;;;;;;;5.93;3.25;;;;;;;;;;5113263;27;20035;-77
2023/09/24 11:02:28;;;;;;;4.53;3.45;;;;;;;;;;5113926;27;20475;-78
2023/09/24 11:04:53;;;;;;;6.50;3.63;;;;;;;;;;5117755;27;20435;-75
2023/09/24 11:07:18;;;;;;;4.20;3.30;;;;;;;;;;5117991;27;20059;-76
2023/09/24 11:09:50;;;;;;;5.72;3.45;;;;;;;;;;5112581;27;20613;-77
2023/09/24 11:12:16;;;;;;;7.60;3.75;;;;;;;;;;5115329;27;20260;-75
2023/09/24 11:14:42;;;;;;;4.88;4.07;;;;;;;;;;5113395;27;20031;-77
2023/09/24 11:17:08;;;;;;;4.88;4.13;;;;;;;;;;5117816;27;20037;-78
2023/09/24 11:19:46;;;;;;;4.95;3.30;;;;;;;;;;5117518;27;20027;-79
2023/09/24 11:22:21;;;;;;;5.75;3.00;;;;;;;;;;5115175;27;20061;-78
2023/09/24 11:24:50;;;;;;;8.27;3.65;;;;;;;;;;5111572;27;20442;-76
2023/09/24 11:27:18;;;;;;;5.70;3.15;;;;;;;;;;5114865;27;20027;-76
2023/09/24 11:29:59;;;;;;;7.88;3.00;;;;;;;;;;5112036;27;20045;-77
2023/09/24 11:32:25;;;;;;;4.68;3.78;;;;;;;;;;5111897;27;20085;-76
2023/09/24 11:35:04;;;;;;;4.80;3.30;;;;;;;;;;5113522;27;20476;-79
2023/09/24 11:37:29;;;;;;;6.77;3.50;;;;;;;;;;5114140;27;20031;-76
2023/09/24 11:39:54;;;;;;;9.07;3.47;;;;;;;;;;5110768;27;20356;-76
2023/09/24 11:42:20;;;;;;;7.85;3.00;;;;;;;;;;5104218;27;20026;-76
2023/09/24 11:44:45;;;;;;;4.00;3.40;;;;;;;;;;5110734;27;20045;-76
2023/09/24 11:47:11;;;;;;;5.28;2.97;;;;;;;;;;5115287;27;20502;-76
2023/09/24 11:49:36;;;;;;;5.97;3.30;;;;;;;;;;5111519;27;20102;-76
2023/09/24 11:52:09;;;;;;;6.50;3.55;;;;;;;;;;5115093;27;20058;-76
2023/09/24 11:54:34;;;;;;;5.97;3.63;;;;;;;;;;5112596;27;20031;-77
2023/09/24 11:57:00;;;;;;;6.68;3.42;;;;;;;;;;5111824;27;20035;-78
2023/09/24 11:59:29;;;;;;;9.40;3.40;;;;;;;;;;5116036;27;20042;-77
2023/09/24 12:01:54;;;;;;;5.40;3.65;;;;;;;;;;5112901;27;20105;-78
2023/09/24 12:04:19;;;;;;;5.97;3.42;;;;;;;;;;5114278;27;20586;-77
2023/09/24 12:06:45;;;;;;;5.82;3.38;;;;;;;;;;5114135;27;20452;-78
2023/09/24 12:09:10;;;;;;;7.05;3.35;;;;;;;;;;5116559;27;20431;-77
2023/09/24 12:11:36;;;;;;;9.05;3.83;;;;;;;;;;5115049;27;20483;-79
2023/09/24 12:14:01;;;;;;;6.65;3.83;;;;;;;;;;5110003;27;20445;-76
2023/09/24 12:16:26;;;;;;;5.25;3.63;;;;;;;;;;5107279;27;20019;-78
2023/09/24 12:18:52;;;;;;;6.78;4.07;;;;;;;;;;5114679;27;20027;-77
2023/09/24 12:21:17;;;;;;;5.93;3.97;;;;;;;;;;5115308;27;20037;-76
2023/09/24 12:23:45;;;;;;;6.15;3.53;;;;;;;;;;5116063;27;20027;-78
2023/09/24 12:26:11;;;;;;;5.80;3.53;;;;;;;;;;5111317;27;20027;-77
2023/09/24 12:28:36;;;;;;;4.20;3.28;;;;;;;;;;5112002;27;20020;-78
2023/09/24 12:31:03;;;;;;;8.43;3.97;;;;;;;;;;5115786;27;20120;-75
2023/09/24 12:33:28;;;;;;;6.63;4.05;;;;;;;;;;5113625;28;20062;-78
2023/09/24 12:35:54;;;;;;;4.95;3.78;;;;;;;;;;5113077;27;20022;-75
2023/09/24 12:38:19;;;;;;;4.47;4.00;;;;;;;;;;5114968;27;20039;-76
2023/09/24 12:40:45;;;;;;;7.22;3.85;;;;;;;;;;5114044;27;20018;-76
2023/09/24 12:43:10;;;;;;;5.95;3.80;;;;;;;;;;5112037;27;20023;-76
2023/09/24 12:45:35;;;;;;;8.00;3.47;;;;;;;;;;5115811;27;20482;-77
2023/09/24 12:48:01;;;;;;;5.40;3.95;;;;;;;;;;5115108;28;20063;-78
2023/09/24 12:50:26;;;;;;;5.50;3.90;;;;;;;;;;5112732;28;20146;-78
2023/09/24 12:52:51;;;;;;;4.20;3.70;;;;;;;;;;5114968;28;20026;-77
2023/09/24 12:55:17;;;;;;;7.32;4.00;;;;;;;;;;5116035;27;20031;-77
2023/09/24 12:57:44;;;;;;;6.50;3.90;;;;;;;;;;5112999;28;20410;-77
2023/09/24 13:00:11;;;;;;;6.50;4.18;;;;;;;;;;5112510;28;20122;-77
2023/09/24 13:02:38;;;;;;;8.70;4.30;;;;;;;;;;5112279;28;20039;-77
2023/09/24 13:05:04;;;;;;;6.43;4.43;;;;;;;;;;5111874;28;20031;-78
2023/09/24 13:07:29;;;;;;;7.60;4.05;;;;;;;;;;5113989;27;20506;-76
2023/09/24 13:09:55;;;;;;;5.35;3.92;;;;;;;;;;5116047;27;20023;-78
2023/09/24 13:12:20;;;;;;;12.13;4.32;;;;;;;;;;5110804;28;20020;-76
2023/09/24 13:14:45;;;;;;;10.25;8.48;;;;;;;;;;5112843;27;20028;-77
2023/09/24 13:17:11;;;;;;;17.88;10.68;;;;;;;;;;5112557;27;20023;-78
2023/09/24 13:19:36;;;;;;;8.38;5.47;;;;;;;;;;5113622;28;20027;-78
2023/09/24 13:22:01;;;;;;;5.38;3.80;;;;;;;;;;5114050;28;20164;-77
2023/09/24 13:24:27;;;;;;;5.05;4.28;;;;;;;;;;5113031;27;20127;-80
2023/09/24 13:26:52;;;;;;;7.78;4.57;;;;;;;;;;5112249;28;20062;-77
2023/09/24 13:29:18;;;;;;;5.97;4.60;;;;;;;;;;5111273;27;20041;-78
2023/09/24 13:31:46;;;;;;;5.90;4.25;;;;;;;;;;5112420;27;20050;-78
2023/09/24 13:34:12;;;;;;;6.63;4.70;;;;;;;;;;5113174;28;20051;-78
2023/09/24 13:36:38;;;;;;;7.75;4.32;;;;;;;;;;5112493;28;20323;-78
2023/09/24 13:39:04;;;;;;;28.77;23.05;;;;;;;;;;5115669;27;20035;-79
2023/09/24 13:41:30;;;;;;;25.17;19.75;;;;;;;;;;5111786;28;20458;-78
2023/09/24 13:43:55;;;;;;;13.80;10.55;;;;;;;;;;5113662;27;20355;-77
2023/09/24 13:46:22;;;;;;;7.18;6.10;;;;;;;;;;5112855;28;20042;-78
2023/09/24 13:48:48;;;;;;;7.40;4.88;;;;;;;;;;5147403;27;20043;-78
2023/09/24 13:51:13;;;;;;;7.18;4.68;;;;;;;;;;5118543;27;20023;-78
2023/09/24 13:53:38;;;;;;;11.55;4.65;;;;;;;;;;5116033;27;20432;-78
2023/09/24 13:56:14;;;;;;;8.95;6.28;;;;;;;;;;5119489;27;20103;-77
2023/09/24 13:58:40;;;;;;;9.73;5.03;;;;;;;;;;5117007;27;20019;-78
2023/09/24 14:01:06;;;;;;;8.70;5.75;;;;;;;;;;5117179;27;20098;-78
2023/09/24 14:03:31;;;;;;;8.18;4.35;;;;;;;;;;5116148;27;20574;-76
2023/09/24 14:05:57;;;;;;;10.18;4.57;;;;;;;;;;5115764;27;20031;-77
2023/09/24 14:13:51;;;;;;;9.38;4.38;;;;;;;;;;5115796;27;20130;-77
2023/09/24 14:16:16;;;;;;;8.13;4.95;;;;;;;;;;5112983;27;20497;-78
2023/09/24 14:18:42;;;;;;;7.88;4.63;;;;;;;;;;5119559;27;20494;-77
2023/09/24 14:21:08;;;;;;;6.57;4.45;;;;;;;;;;5114208;27;20090;-77
2023/09/24 14:23:34;;;;;;;6.78;4.75;;;;;;;;;;5109792;27;20083;-77
2023/09/24 14:25:59;;;;;;;10.82;4.72;;;;;;;;;;5114593;27;20425;-77
2023/09/24 14:28:24;;;;;;;7.93;5.20;;;;;;;;;;5118455;27;22592;-76
2023/09/24 14:30:50;;;;;;;7.82;4.80;;;;;;;;;;5116178;27;20023;-77
2023/09/24 14:33:15;;;;;;;11.48;5.80;;;;;;;;;;5118276;27;20055;-77
2023/09/24 14:35:40;;;;;;;11.00;6.43;;;;;;;;;;5118737;27;20027;-76
2023/09/24 14:38:06;;;;;;;11.73;5.47;;;;;;;;;;5116163;27;20038;-76
2023/09/24 14:40:32;;;;;;;8.93;5.88;;;;;;;;;;5111816;27;20023;-79
2023/09/24 14:42:57;;;;;;;7.28;5.00;;;;;;;;;;5111041;27;20039;-77